sensor_id;sensor_type;location;lat;lon;timestamp;P1;durP1;ratioP1;P2;durP2;ratioP2
58760;SDS011;44529;47.464;19.014;2023-02-22T00:02:09;5.22;;;3.10;;
58760;SDS011;44529;47.464;19.014;2023-02-22T00:05:12;3.95;;;3.30;;
58760;SDS011;44529;47.464;19.014;2023-02-22T00:08:18;3.47;;;3.17;;
58760;SDS011;44529;47.464;19.014;2023-02-22T00:11:22;3.50;;;3.20;;
58760;SDS011;44529;47.464;19.014;2023-02-22T00:14:24;3.20;;;2.90;;
58760;SDS011;44529;47.464;19.014;2023-02-22T00:17:28;5.87;;;3.10;;
58760;SDS011;44529;47.464;19.014;2023-02-22T00:20:31;4.43;;;3.10;;
58760;SDS011;44529;47.464;19.014;2023-02-22T00:23:33;6.35;;;3.80;;
58760;SDS011;44529;47.464;19.014;2023-02-22T00:26:36;5.28;;;3.50;;
58760;SDS011;44529;47.464;19.014;2023-02-22T00:29:42;5.55;;;3.85;;
58760;SDS011;44529;47.464;19.014;2023-02-22T00:32:46;7.10;;;3.90;;
58760;SDS011;44529;47.464;19.014;2023-02-22T00:35:49;5.28;;;3.90;;
58760;SDS011;44529;47.464;19.014;2023-02-22T00:38:51;7.32;;;4.05;;
58760;SDS011;44529;47.464;19.014;2023-02-22T00:41:54;4.55;;;3.92;;
58760;SDS011;44529;47.464;19.014;2023-02-22T00:44:56;5.05;;;4.22;;
58760;SDS011;44529;47.464;19.014;2023-02-22T00:47:59;4.43;;;3.97;;
58760;SDS011;44529;47.464;19.014;2023-02-22T00:51:02;7.85;;;4.22;;
58760;SDS011;44529;47.464;19.014;2023-02-22T00:54:05;4.90;;;3.80;;
58760;SDS011;44529;47.464;19.014;2023-02-22T00:57:07;6.00;;;3.90;;
58760;SDS011;44529;47.464;19.014;2023-02-22T01:00:14;4.40;;;4.00;;
58760;SDS011;44529;47.464;19.014;2023-02-22T01:03:20;4.35;;;3.95;;
58760;SDS011;44529;47.464;19.014;2023-02-22T01:06:23;5.03;;;4.15;;
58760;SDS011;44529;47.464;19.014;2023-02-22T01:09:25;4.32;;;3.92;;
58760;SDS011;44529;47.464;19.014;2023-02-22T01:12:28;4.50;;;3.92;;
58760;SDS011;44529;47.464;19.014;2023-02-22T01:15:30;5.57;;;4.10;;
58760;SDS011;44529;47.464;19.014;2023-02-22T01:18:34;5.47;;;4.10;;
58760;SDS011;44529;47.464;19.014;2023-02-22T01:21:38;5.85;;;4.60;;
58760;SDS011;44529;47.464;19.014;2023-02-22T01:24:41;5.55;;;4.90;;
58760;SDS011;44529;47.464;19.014;2023-02-22T01:27:43;5.20;;;4.32;;
58760;SDS011;44529;47.464;19.014;2023-02-22T01:30:46;5.07;;;4.62;;
58760;SDS011;44529;47.464;19.014;2023-02-22T01:33:49;5.25;;;4.75;;
58760;SDS011;44529;47.464;19.014;2023-02-22T01:36:52;7.90;;;4.80;;
58760;SDS011;44529;47.464;19.014;2023-02-22T01:39:54;6.45;;;5.12;;
58760;SDS011;44529;47.464;19.014;2023-02-22T01:43:01;6.78;;;5.20;;
58760;SDS011;44529;47.464;19.014;2023-02-22T01:46:23;5.30;;;4.57;;
58760;SDS011;44529;47.464;19.014;2023-02-22T01:52:32;10.68;;;4.57;;
58760;SDS011;44529;47.464;19.014;2023-02-22T01:55:34;6.03;;;4.95;;
58760;SDS011;44529;47.464;19.014;2023-02-22T01:58:37;5.70;;;4.80;;
58760;SDS011;44529;47.464;19.014;2023-02-22T02:01:46;5.65;;;4.80;;
58760;SDS011;44529;47.464;19.014;2023-02-22T02:04:48;6.45;;;4.85;;
58760;SDS011;44529;47.464;19.014;2023-02-22T02:07:52;6.32;;;4.87;;
58760;SDS011;44529;47.464;19.014;2023-02-22T02:10:55;7.12;;;4.82;;
58760;SDS011;44529;47.464;19.014;2023-02-22T02:13:59;5.62;;;4.97;;
58760;SDS011;44529;47.464;19.014;2023-02-22T02:17:01;6.35;;;4.80;;
58760;SDS011;44529;47.464;19.014;2023-02-22T02:23:46;6.28;;;5.00;;
58760;SDS011;44529;47.464;19.014;2023-02-22T02:30:24;5.32;;;4.57;;
58760;SDS011;44529;47.464;19.014;2023-02-22T02:33:36;5.93;;;5.30;;
58760;SDS011;44529;47.464;19.014;2023-02-22T02:40:57;6.75;;;5.10;;
58760;SDS011;44529;47.464;19.014;2023-02-22T02:43:50;5.78;;;5.12;;
58760;SDS011;44529;47.464;19.014;2023-02-22T02:47:05;7.93;;;5.35;;
58760;SDS011;44529;47.464;19.014;2023-02-22T02:50:17;6.18;;;4.80;;
58760;SDS011;44529;47.464;19.014;2023-02-22T02:53:24;5.72;;;5.00;;
58760;SDS011;44529;47.464;19.014;2023-02-22T02:56:32;5.85;;;4.90;;
58760;SDS011;44529;47.464;19.014;2023-02-22T02:59:35;6.03;;;5.28;;
58760;SDS011;44529;47.464;19.014;2023-02-22T03:06:02;6.75;;;5.10;;
58760;SDS011;44529;47.464;19.014;2023-02-22T03:09:34;5.75;;;4.97;;
58760;SDS011;44529;47.464;19.014;2023-02-22T03:16:08;6.70;;;5.15;;
58760;SDS011;44529;47.464;19.014;2023-02-22T03:22:54;7.10;;;5.50;;
58760;SDS011;44529;47.464;19.014;2023-02-22T03:26:15;5.95;;;4.97;;
58760;SDS011;44529;47.464;19.014;2023-02-22T03:29:25;7.53;;;5.20;;
58760;SDS011;44529;47.464;19.014;2023-02-22T03:32:32;6.37;;;5.47;;
58760;SDS011;44529;47.464;19.014;2023-02-22T03:35:41;7.30;;;5.25;;
58760;SDS011;44529;47.464;19.014;2023-02-22T03:38:49;5.82;;;5.22;;
58760;SDS011;44529;47.464;19.014;2023-02-22T03:41:57;6.90;;;5.37;;
58760;SDS011;44529;47.464;19.014;2023-02-22T03:45:21;6.10;;;5.50;;
58760;SDS011;44529;47.464;19.014;2023-02-22T03:48:35;6.30;;;5.43;;
58760;SDS011;44529;47.464;19.014;2023-02-22T03:51:39;8.45;;;6.22;;
58760;SDS011;44529;47.464;19.014;2023-02-22T03:54:42;11.43;;;6.00;;
58760;SDS011;44529;47.464;19.014;2023-02-22T03:57:47;7.30;;;5.87;;
58760;SDS011;44529;47.464;19.014;2023-02-22T04:00:51;9.00;;;5.57;;
58760;SDS011;44529;47.464;19.014;2023-02-22T04:03:54;5.72;;;5.12;;
58760;SDS011;44529;47.464;19.014;2023-02-22T04:06:57;6.45;;;5.45;;
58760;SDS011;44529;47.464;19.014;2023-02-22T04:10:00;9.57;;;5.50;;
58760;SDS011;44529;47.464;19.014;2023-02-22T04:13:04;6.93;;;5.32;;
58760;SDS011;44529;47.464;19.014;2023-02-22T04:16:12;6.57;;;5.57;;
58760;SDS011;44529;47.464;19.014;2023-02-22T04:19:14;6.85;;;5.90;;
58760;SDS011;44529;47.464;19.014;2023-02-22T04:22:18;6.35;;;5.20;;
58760;SDS011;44529;47.464;19.014;2023-02-22T04:25:21;6.50;;;5.75;;
58760;SDS011;44529;47.464;19.014;2023-02-22T04:28:24;6.15;;;4.95;;
58760;SDS011;44529;47.464;19.014;2023-02-22T04:31:27;6.03;;;5.43;;
58760;SDS011;44529;47.464;19.014;2023-02-22T04:34:29;8.73;;;6.20;;
58760;SDS011;44529;47.464;19.014;2023-02-22T04:37:32;6.35;;;5.35;;
58760;SDS011;44529;47.464;19.014;2023-02-22T04:40:37;7.75;;;5.55;;
58760;SDS011;44529;47.464;19.014;2023-02-22T04:43:40;6.00;;;5.43;;
58760;SDS011;44529;47.464;19.014;2023-02-22T04:46:44;8.20;;;5.32;;
58760;SDS011;44529;47.464;19.014;2023-02-22T04:49:48;7.80;;;5.00;;
58760;SDS011;44529;47.464;19.014;2023-02-22T04:52:50;6.87;;;5.18;;
58760;SDS011;44529;47.464;19.014;2023-02-22T04:55:52;8.32;;;5.62;;
58760;SDS011;44529;47.464;19.014;2023-02-22T04:58:55;7.65;;;5.57;;
58760;SDS011;44529;47.464;19.014;2023-02-22T05:01:57;7.95;;;5.57;;
58760;SDS011;44529;47.464;19.014;2023-02-22T05:05:01;7.10;;;5.35;;
58760;SDS011;44529;47.464;19.014;2023-02-22T05:08:04;8.40;;;6.22;;
58760;SDS011;44529;47.464;19.014;2023-02-22T05:11:06;9.35;;;5.85;;
58760;SDS011;44529;47.464;19.014;2023-02-22T05:14:09;10.45;;;6.37;;
58760;SDS011;44529;47.464;19.014;2023-02-22T05:17:11;7.35;;;5.80;;
58760;SDS011;44529;47.464;19.014;2023-02-22T05:20:21;7.10;;;6.12;;
58760;SDS011;44529;47.464;19.014;2023-02-22T05:23:28;7.65;;;5.65;;
58760;SDS011;44529;47.464;19.014;2023-02-22T05:26:31;7.35;;;5.78;;
58760;SDS011;44529;47.464;19.014;2023-02-22T05:29:33;11.25;;;5.90;;
58760;SDS011;44529;47.464;19.014;2023-02-22T05:32:35;8.43;;;6.18;;
58760;SDS011;44529;47.464;19.014;2023-02-22T05:35:38;9.45;;;5.50;;
58760;SDS011;44529;47.464;19.014;2023-02-22T05:38:40;6.87;;;5.70;;
58760;SDS011;44529;47.464;19.014;2023-02-22T05:41:44;7.87;;;5.55;;
58760;SDS011;44529;47.464;19.014;2023-02-22T05:44:47;7.35;;;5.97;;
58760;SDS011;44529;47.464;19.014;2023-02-22T05:47:49;9.50;;;5.80;;
58760;SDS011;44529;47.464;19.014;2023-02-22T05:50:52;6.78;;;6.03;;
58760;SDS011;44529;47.464;19.014;2023-02-22T05:53:54;7.03;;;5.90;;
58760;SDS011;44529;47.464;19.014;2023-02-22T05:56:57;7.22;;;6.10;;
58760;SDS011;44529;47.464;19.014;2023-02-22T05:59:59;6.95;;;5.60;;
58760;SDS011;44529;47.464;19.014;2023-02-22T06:03:03;8.60;;;5.60;;
58760;SDS011;44529;47.464;19.014;2023-02-22T06:06:07;8.48;;;5.78;;
58760;SDS011;44529;47.464;19.014;2023-02-22T06:09:11;9.77;;;6.95;;
58760;SDS011;44529;47.464;19.014;2023-02-22T06:12:13;12.40;;;6.70;;
58760;SDS011;44529;47.464;19.014;2023-02-22T06:15:17;8.48;;;6.72;;
58760;SDS011;44529;47.464;19.014;2023-02-22T06:18:21;9.70;;;7.12;;
58760;SDS011;44529;47.464;19.014;2023-02-22T06:21:28;9.15;;;7.18;;
58760;SDS011;44529;47.464;19.014;2023-02-22T06:24:31;11.93;;;7.05;;
58760;SDS011;44529;47.464;19.014;2023-02-22T06:27:33;10.90;;;6.60;;
58760;SDS011;44529;47.464;19.014;2023-02-22T06:30:36;11.43;;;7.00;;
58760;SDS011;44529;47.464;19.014;2023-02-22T06:33:38;11.38;;;6.43;;
58760;SDS011;44529;47.464;19.014;2023-02-22T06:36:41;9.90;;;6.32;;
58760;SDS011;44529;47.464;19.014;2023-02-22T06:39:43;11.85;;;7.20;;
58760;SDS011;44529;47.464;19.014;2023-02-22T06:42:46;14.35;;;7.35;;
58760;SDS011;44529;47.464;19.014;2023-02-22T06:45:50;8.77;;;6.07;;
58760;SDS011;44529;47.464;19.014;2023-02-22T06:48:53;8.13;;;6.72;;
58760;SDS011;44529;47.464;19.014;2023-02-22T06:51:55;9.15;;;6.05;;
58760;SDS011;44529;47.464;19.014;2023-02-22T06:54:58;9.00;;;6.62;;
58760;SDS011;44529;47.464;19.014;2023-02-22T06:58:01;7.22;;;5.78;;
58760;SDS011;44529;47.464;19.014;2023-02-22T07:01:04;9.48;;;6.07;;
58760;SDS011;44529;47.464;19.014;2023-02-22T07:04:08;8.13;;;5.65;;
58760;SDS011;44529;47.464;19.014;2023-02-22T07:07:12;9.73;;;6.45;;
58760;SDS011;44529;47.464;19.014;2023-02-22T07:10:19;9.07;;;7.18;;
58760;SDS011;44529;47.464;19.014;2023-02-22T07:13:22;10.68;;;7.97;;
58760;SDS011;44529;47.464;19.014;2023-02-22T07:16:24;12.40;;;7.60;;
58760;SDS011;44529;47.464;19.014;2023-02-22T07:19:27;9.98;;;7.55;;
58760;SDS011;44529;47.464;19.014;2023-02-22T07:22:30;9.60;;;7.55;;
58760;SDS011;44529;47.464;19.014;2023-02-22T07:25:32;10.77;;;7.32;;
58760;SDS011;44529;47.464;19.014;2023-02-22T07:28:35;14.57;;;6.95;;
58760;SDS011;44529;47.464;19.014;2023-02-22T07:31:37;11.95;;;7.85;;
58760;SDS011;44529;47.464;19.014;2023-02-22T07:34:40;9.60;;;7.12;;
58760;SDS011;44529;47.464;19.014;2023-02-22T07:37:44;9.27;;;6.85;;
58760;SDS011;44529;47.464;19.014;2023-02-22T07:40:46;10.95;;;7.72;;
58760;SDS011;44529;47.464;19.014;2023-02-22T07:43:48;11.45;;;7.97;;
58760;SDS011;44529;47.464;19.014;2023-02-22T07:46:50;13.80;;;8.40;;
58760;SDS011;44529;47.464;19.014;2023-02-22T07:49:54;14.10;;;8.95;;
58760;SDS011;44529;47.464;19.014;2023-02-22T07:52:57;11.70;;;7.55;;
58760;SDS011;44529;47.464;19.014;2023-02-22T07:56:02;8.52;;;6.68;;
58760;SDS011;44529;47.464;19.014;2023-02-22T07:59:06;15.10;;;7.82;;
58760;SDS011;44529;47.464;19.014;2023-02-22T08:02:13;13.93;;;8.60;;
58760;SDS011;44529;47.464;19.014;2023-02-22T08:05:17;12.65;;;8.10;;
58760;SDS011;44529;47.464;19.014;2023-02-22T08:08:20;10.00;;;7.65;;
58760;SDS011;44529;47.464;19.014;2023-02-22T08:11:24;8.88;;;7.40;;
58760;SDS011;44529;47.464;19.014;2023-02-22T08:14:26;8.32;;;7.40;;
58760;SDS011;44529;47.464;19.014;2023-02-22T08:17:29;11.60;;;7.45;;
58760;SDS011;44529;47.464;19.014;2023-02-22T08:20:31;10.23;;;7.03;;
58760;SDS011;44529;47.464;19.014;2023-02-22T08:23:34;9.27;;;7.37;;
58760;SDS011;44529;47.464;19.014;2023-02-22T08:26:36;11.30;;;7.62;;
58760;SDS011;44529;47.464;19.014;2023-02-22T08:29:38;10.02;;;7.25;;
58760;SDS011;44529;47.464;19.014;2023-02-22T08:32:41;9.57;;;7.07;;
58760;SDS011;44529;47.464;19.014;2023-02-22T08:35:44;8.35;;;7.22;;
58760;SDS011;44529;47.464;19.014;2023-02-22T08:38:50;10.68;;;7.53;;
58760;SDS011;44529;47.464;19.014;2023-02-22T08:41:52;8.20;;;7.15;;
58760;SDS011;44529;47.464;19.014;2023-02-22T08:44:55;10.35;;;6.85;;
58760;SDS011;44529;47.464;19.014;2023-02-22T08:47:58;8.07;;;7.07;;
58760;SDS011;44529;47.464;19.014;2023-02-22T08:51:00;13.15;;;7.10;;
58760;SDS011;44529;47.464;19.014;2023-02-22T08:54:03;8.73;;;7.85;;
58760;SDS011;44529;47.464;19.014;2023-02-22T08:57:07;8.68;;;6.80;;
58760;SDS011;44529;47.464;19.014;2023-02-22T09:00:10;8.10;;;6.50;;
58760;SDS011;44529;47.464;19.014;2023-02-22T09:03:13;9.07;;;6.50;;
58760;SDS011;44529;47.464;19.014;2023-02-22T09:06:17;10.38;;;6.87;;
58760;SDS011;44529;47.464;19.014;2023-02-22T09:09:19;8.90;;;6.50;;
58760;SDS011;44529;47.464;19.014;2023-02-22T09:12:22;8.15;;;7.00;;
58760;SDS011;44529;47.464;19.014;2023-02-22T09:15:25;12.27;;;8.23;;
58760;SDS011;44529;47.464;19.014;2023-02-22T09:18:28;14.57;;;9.68;;
58760;SDS011;44529;47.464;19.014;2023-02-22T09:21:43;17.98;;;10.60;;
58760;SDS011;44529;47.464;19.014;2023-02-22T09:24:45;16.73;;;11.60;;
58760;SDS011;44529;47.464;19.014;2023-02-22T09:27:51;14.90;;;11.60;;
58760;SDS011;44529;47.464;19.014;2023-02-22T09:30:54;14.23;;;11.63;;
58760;SDS011;44529;47.464;19.014;2023-02-22T09:33:57;15.55;;;12.32;;
58760;SDS011;44529;47.464;19.014;2023-02-22T09:36:59;18.90;;;11.98;;
58760;SDS011;44529;47.464;19.014;2023-02-22T09:40:02;17.40;;;12.77;;
58760;SDS011;44529;47.464;19.014;2023-02-22T09:43:29;17.75;;;12.23;;
58760;SDS011;44529;47.464;19.014;2023-02-22T09:46:57;14.05;;;11.77;;
58760;SDS011;44529;47.464;19.014;2023-02-22T09:50:10;18.05;;;12.80;;
58760;SDS011;44529;47.464;19.014;2023-02-22T09:56:37;18.55;;;13.43;;
58760;SDS011;44529;47.464;19.014;2023-02-22T10:00:03;16.23;;;14.00;;
58760;SDS011;44529;47.464;19.014;2023-02-22T10:03:21;18.12;;;13.10;;
58760;SDS011;44529;47.464;19.014;2023-02-22T10:06:35;20.77;;;13.00;;
58760;SDS011;44529;47.464;19.014;2023-02-22T10:09:41;18.17;;;13.50;;
58760;SDS011;44529;47.464;19.014;2023-02-22T10:12:51;16.20;;;12.93;;
58760;SDS011;44529;47.464;19.014;2023-02-22T10:16:00;17.58;;;13.70;;
58760;SDS011;44529;47.464;19.014;2023-02-22T10:26:19;23.90;;;14.32;;
58760;SDS011;44529;47.464;19.014;2023-02-22T10:32:43;20.80;;;13.55;;
58760;SDS011;44529;47.464;19.014;2023-02-22T10:35:48;17.23;;;13.70;;
58760;SDS011;44529;47.464;19.014;2023-02-22T10:38:54;18.02;;;14.05;;
58760;SDS011;44529;47.464;19.014;2023-02-22T10:42:02;18.08;;;14.02;;
58760;SDS011;44529;47.464;19.014;2023-02-22T10:45:21;17.77;;;13.50;;
58760;SDS011;44529;47.464;19.014;2023-02-22T10:48:28;15.60;;;12.75;;
58760;SDS011;44529;47.464;19.014;2023-02-22T10:51:33;18.70;;;13.25;;
58760;SDS011;44529;47.464;19.014;2023-02-22T10:54:38;18.70;;;12.35;;
58760;SDS011;44529;47.464;19.014;2023-02-22T10:57:44;13.45;;;12.02;;
58760;SDS011;44529;47.464;19.014;2023-02-22T11:00:50;17.35;;;12.88;;
58760;SDS011;44529;47.464;19.014;2023-02-22T11:03:56;16.02;;;12.52;;
58760;SDS011;44529;47.464;19.014;2023-02-22T11:10:07;17.25;;;12.30;;
58760;SDS011;44529;47.464;19.014;2023-02-22T11:13:33;16.75;;;12.32;;
58760;SDS011;44529;47.464;19.014;2023-02-22T11:16:50;15.90;;;12.40;;
58760;SDS011;44529;47.464;19.014;2023-02-22T11:19:54;15.23;;;12.32;;
58760;SDS011;44529;47.464;19.014;2023-02-22T11:22:58;16.87;;;12.07;;
58760;SDS011;44529;47.464;19.014;2023-02-22T11:26:10;14.07;;;12.68;;
58760;SDS011;44529;47.464;19.014;2023-02-22T11:29:24;19.15;;;13.93;;
58760;SDS011;44529;47.464;19.014;2023-02-22T11:32:35;16.77;;;12.85;;
58760;SDS011;44529;47.464;19.014;2023-02-22T11:36:00;17.08;;;12.57;;
58760;SDS011;44529;47.464;19.014;2023-02-22T11:39:21;14.70;;;12.43;;
58760;SDS011;44529;47.464;19.014;2023-02-22T11:42:28;17.90;;;12.55;;
58760;SDS011;44529;47.464;19.014;2023-02-22T11:45:32;13.40;;;11.77;;
58760;SDS011;44529;47.464;19.014;2023-02-22T11:48:37;14.02;;;11.82;;
58760;SDS011;44529;47.464;19.014;2023-02-22T11:55:23;17.10;;;13.13;;
58760;SDS011;44529;47.464;19.014;2023-02-22T12:09:18;16.05;;;13.05;;
58760;SDS011;44529;47.464;19.014;2023-02-22T12:15:54;17.83;;;12.82;;
58760;SDS011;44529;47.464;19.014;2023-02-22T12:22:14;14.73;;;12.30;;
58760;SDS011;44529;47.464;19.014;2023-02-22T12:25:24;16.40;;;13.45;;
58760;SDS011;44529;47.464;19.014;2023-02-22T12:31:38;14.43;;;12.70;;
58760;SDS011;44529;47.464;19.014;2023-02-22T12:35:32;14.32;;;12.60;;
58760;SDS011;44529;47.464;19.014;2023-02-22T12:38:22;16.90;;;12.80;;
58760;SDS011;44529;47.464;19.014;2023-02-22T12:41:37;19.80;;;13.90;;
58760;SDS011;44529;47.464;19.014;2023-02-22T12:44:46;14.70;;;13.20;;
58760;SDS011;44529;47.464;19.014;2023-02-22T12:47:59;18.55;;;13.73;;
58760;SDS011;44529;47.464;19.014;2023-02-22T13:01:02;15.02;;;13.13;;
58760;SDS011;44529;47.464;19.014;2023-02-22T13:04:13;15.25;;;13.00;;
58760;SDS011;44529;47.464;19.014;2023-02-22T13:14:10;16.65;;;13.27;;
58760;SDS011;44529;47.464;19.014;2023-02-22T13:20:53;16.35;;;12.63;;
58760;SDS011;44529;47.464;19.014;2023-02-22T13:27:29;13.90;;;12.35;;
58760;SDS011;44529;47.464;19.014;2023-02-22T13:30:35;13.13;;;11.48;;
58760;SDS011;44529;47.464;19.014;2023-02-22T13:48:10;19.17;;;12.20;;
58760;SDS011;44529;47.464;19.014;2023-02-22T13:54:43;17.08;;;13.62;;
58760;SDS011;44529;47.464;19.014;2023-02-22T13:58:03;16.17;;;13.20;;
58760;SDS011;44529;47.464;19.014;2023-02-22T14:01:08;16.05;;;12.60;;
58760;SDS011;44529;47.464;19.014;2023-02-22T14:04:43;14.93;;;12.80;;
58760;SDS011;44529;47.464;19.014;2023-02-22T14:07:46;19.90;;;13.95;;
58760;SDS011;44529;47.464;19.014;2023-02-22T14:10:51;19.65;;;14.38;;
58760;SDS011;44529;47.464;19.014;2023-02-22T14:17:16;20.95;;;13.85;;
58760;SDS011;44529;47.464;19.014;2023-02-22T14:20:29;18.20;;;13.05;;
58760;SDS011;44529;47.464;19.014;2023-02-22T14:24:24;18.77;;;13.25;;
58760;SDS011;44529;47.464;19.014;2023-02-22T14:30:32;17.80;;;12.27;;
58760;SDS011;44529;47.464;19.014;2023-02-22T14:40:18;16.05;;;11.02;;
58760;SDS011;44529;47.464;19.014;2023-02-22T14:43:27;16.80;;;11.90;;
58760;SDS011;44529;47.464;19.014;2023-02-22T14:46:30;11.55;;;9.20;;
58760;SDS011;44529;47.464;19.014;2023-02-22T14:49:40;13.10;;;9.55;;
58760;SDS011;44529;47.464;19.014;2023-02-22T14:52:46;14.40;;;8.98;;
58760;SDS011;44529;47.464;19.014;2023-02-22T14:55:59;13.85;;;10.23;;
58760;SDS011;44529;47.464;19.014;2023-02-22T14:59:24;10.43;;;7.50;;
58760;SDS011;44529;47.464;19.014;2023-02-22T15:02:31;9.70;;;8.00;;
58760;SDS011;44529;47.464;19.014;2023-02-22T15:05:39;13.62;;;7.40;;
58760;SDS011;44529;47.464;19.014;2023-02-22T15:08:42;9.77;;;6.68;;
58760;SDS011;44529;47.464;19.014;2023-02-22T15:15:17;7.40;;;6.12;;
58760;SDS011;44529;47.464;19.014;2023-02-22T15:22:05;5.90;;;5.03;;
58760;SDS011;44529;47.464;19.014;2023-02-22T15:25:22;6.35;;;4.20;;
58760;SDS011;44529;47.464;19.014;2023-02-22T15:28:28;8.23;;;4.72;;
58760;SDS011;44529;47.464;19.014;2023-02-22T15:31:33;6.75;;;4.45;;
58760;SDS011;44529;47.464;19.014;2023-02-22T15:34:39;4.87;;;4.40;;
58760;SDS011;44529;47.464;19.014;2023-02-22T15:37:44;6.85;;;4.45;;
58760;SDS011;44529;47.464;19.014;2023-02-22T15:40:57;4.00;;;3.60;;
58760;SDS011;44529;47.464;19.014;2023-02-22T15:44:07;6.07;;;3.92;;
58760;SDS011;44529;47.464;19.014;2023-02-22T15:47:26;7.18;;;3.53;;
58760;SDS011;44529;47.464;19.014;2023-02-22T15:50:31;7.72;;;3.55;;
58760;SDS011;44529;47.464;19.014;2023-02-22T15:53:48;5.85;;;4.55;;
58760;SDS011;44529;47.464;19.014;2023-02-22T15:56:51;8.32;;;4.70;;
58760;SDS011;44529;47.464;19.014;2023-02-22T15:59:57;7.80;;;5.18;;
58760;SDS011;44529;47.464;19.014;2023-02-22T16:03:03;8.35;;;5.68;;
58760;SDS011;44529;47.464;19.014;2023-02-22T16:06:12;9.05;;;7.10;;
58760;SDS011;44529;47.464;19.014;2023-02-22T16:09:29;16.02;;;11.02;;
58760;SDS011;44529;47.464;19.014;2023-02-22T16:12:34;14.35;;;11.18;;
58760;SDS011;44529;47.464;19.014;2023-02-22T16:15:36;17.62;;;11.88;;
58760;SDS011;44529;47.464;19.014;2023-02-22T16:18:39;13.30;;;10.90;;
58760;SDS011;44529;47.464;19.014;2023-02-22T16:21:48;16.73;;;11.73;;
58760;SDS011;44529;47.464;19.014;2023-02-22T16:24:55;15.35;;;11.77;;
58760;SDS011;44529;47.464;19.014;2023-02-22T16:28:33;23.35;;;12.73;;
58760;SDS011;44529;47.464;19.014;2023-02-22T16:31:38;17.52;;;12.70;;
58760;SDS011;44529;47.464;19.014;2023-02-22T16:34:41;16.77;;;12.63;;
58760;SDS011;44529;47.464;19.014;2023-02-22T16:37:47;17.05;;;13.27;;
58760;SDS011;44529;47.464;19.014;2023-02-22T16:40:51;20.08;;;13.70;;
58760;SDS011;44529;47.464;19.014;2023-02-22T16:43:56;15.80;;;14.13;;
58760;SDS011;44529;47.464;19.014;2023-02-22T16:46:58;19.02;;;14.23;;
58760;SDS011;44529;47.464;19.014;2023-02-22T16:50:01;17.35;;;12.43;;
58760;SDS011;44529;47.464;19.014;2023-02-22T16:53:04;17.00;;;12.55;;
58760;SDS011;44529;47.464;19.014;2023-02-22T16:56:07;23.62;;;11.88;;
58760;SDS011;44529;47.464;19.014;2023-02-22T16:59:12;17.20;;;10.95;;
58760;SDS011;44529;47.464;19.014;2023-02-22T17:02:16;18.95;;;10.70;;
58760;SDS011;44529;47.464;19.014;2023-02-22T17:05:20;20.77;;;11.20;;
58760;SDS011;44529;47.464;19.014;2023-02-22T17:08:22;18.20;;;11.65;;
58760;SDS011;44529;47.464;19.014;2023-02-22T17:11:24;17.48;;;10.60;;
58760;SDS011;44529;47.464;19.014;2023-02-22T17:14:29;14.15;;;10.82;;
58760;SDS011;44529;47.464;19.014;2023-02-22T17:17:34;16.50;;;10.93;;
58760;SDS011;44529;47.464;19.014;2023-02-22T17:20:36;18.30;;;10.48;;
58760;SDS011;44529;47.464;19.014;2023-02-22T17:23:39;24.95;;;13.40;;
58760;SDS011;44529;47.464;19.014;2023-02-22T17:26:41;20.62;;;12.52;;
58760;SDS011;44529;47.464;19.014;2023-02-22T17:29:43;20.37;;;14.13;;
58760;SDS011;44529;47.464;19.014;2023-02-22T17:32:47;18.23;;;13.90;;
58760;SDS011;44529;47.464;19.014;2023-02-22T17:35:51;21.42;;;14.93;;
58760;SDS011;44529;47.464;19.014;2023-02-22T17:38:55;20.92;;;15.10;;
58760;SDS011;44529;47.464;19.014;2023-02-22T17:41:57;21.27;;;15.50;;
58760;SDS011;44529;47.464;19.014;2023-02-22T17:45:00;23.90;;;16.20;;
58760;SDS011;44529;47.464;19.014;2023-02-22T17:48:02;20.77;;;16.05;;
58760;SDS011;44529;47.464;19.014;2023-02-22T17:51:06;23.50;;;17.45;;
58760;SDS011;44529;47.464;19.014;2023-02-22T17:54:10;27.55;;;18.48;;
58760;SDS011;44529;47.464;19.014;2023-02-22T17:57:13;24.77;;;16.52;;
58760;SDS011;44529;47.464;19.014;2023-02-22T18:00:16;27.73;;;18.85;;
58760;SDS011;44529;47.464;19.014;2023-02-22T18:03:25;26.15;;;18.98;;
58760;SDS011;44529;47.464;19.014;2023-02-22T18:06:28;27.37;;;18.73;;
58760;SDS011;44529;47.464;19.014;2023-02-22T18:09:33;30.95;;;19.60;;
58760;SDS011;44529;47.464;19.014;2023-02-22T18:12:37;25.83;;;16.20;;
58760;SDS011;44529;47.464;19.014;2023-02-22T18:15:41;21.00;;;14.25;;
58760;SDS011;44529;47.464;19.014;2023-02-22T18:18:43;22.87;;;14.68;;
58760;SDS011;44529;47.464;19.014;2023-02-22T18:21:46;23.35;;;13.85;;
58760;SDS011;44529;47.464;19.014;2023-02-22T18:24:48;19.80;;;13.75;;
58760;SDS011;44529;47.464;19.014;2023-02-22T18:27:51;21.80;;;14.45;;
58760;SDS011;44529;47.464;19.014;2023-02-22T18:30:54;22.33;;;14.93;;
58760;SDS011;44529;47.464;19.014;2023-02-22T18:33:56;20.30;;;14.63;;
58760;SDS011;44529;47.464;19.014;2023-02-22T18:36:58;25.25;;;14.63;;
58760;SDS011;44529;47.464;19.014;2023-02-22T18:40:02;19.12;;;14.13;;
58760;SDS011;44529;47.464;19.014;2023-02-22T18:43:05;20.30;;;14.05;;
58760;SDS011;44529;47.464;19.014;2023-02-22T18:46:08;21.48;;;14.30;;
58760;SDS011;44529;47.464;19.014;2023-02-22T18:49:13;23.73;;;15.38;;
58760;SDS011;44529;47.464;19.014;2023-02-22T18:52:16;24.77;;;14.25;;
58760;SDS011;44529;47.464;19.014;2023-02-22T18:55:19;27.52;;;15.60;;
58760;SDS011;44529;47.464;19.014;2023-02-22T18:58:23;22.87;;;14.60;;
58760;SDS011;44529;47.464;19.014;2023-02-22T19:01:25;24.10;;;14.38;;
58760;SDS011;44529;47.464;19.014;2023-02-22T19:04:28;23.02;;;13.95;;
58760;SDS011;44529;47.464;19.014;2023-02-22T19:07:30;19.95;;;12.70;;
58760;SDS011;44529;47.464;19.014;2023-02-22T19:10:33;17.98;;;12.88;;
58760;SDS011;44529;47.464;19.014;2023-02-22T19:13:36;21.05;;;13.05;;
58760;SDS011;44529;47.464;19.014;2023-02-22T19:16:39;20.95;;;12.15;;
58760;SDS011;44529;47.464;19.014;2023-02-22T19:19:42;21.27;;;11.70;;
58760;SDS011;44529;47.464;19.014;2023-02-22T19:22:45;19.10;;;11.20;;
58760;SDS011;44529;47.464;19.014;2023-02-22T19:25:47;18.95;;;11.45;;
58760;SDS011;44529;47.464;19.014;2023-02-22T19:28:50;16.27;;;11.60;;
58760;SDS011;44529;47.464;19.014;2023-02-22T19:31:55;17.60;;;9.85;;
58760;SDS011;44529;47.464;19.014;2023-02-22T19:34:58;17.25;;;10.68;;
58760;SDS011;44529;47.464;19.014;2023-02-22T19:38:03;13.88;;;9.20;;
58760;SDS011;44529;47.464;19.014;2023-02-22T19:41:09;18.27;;;10.32;;
58760;SDS011;44529;47.464;19.014;2023-02-22T19:44:19;17.52;;;9.38;;
58760;SDS011;44529;47.464;19.014;2023-02-22T19:47:21;15.38;;;9.52;;
58760;SDS011;44529;47.464;19.014;2023-02-22T19:50:23;18.08;;;8.88;;
58760;SDS011;44529;47.464;19.014;2023-02-22T19:53:26;19.15;;;8.80;;
58760;SDS011;44529;47.464;19.014;2023-02-22T19:56:28;20.83;;;8.18;;
58760;SDS011;44529;47.464;19.014;2023-02-22T19:59:32;16.35;;;7.95;;
58760;SDS011;44529;47.464;19.014;2023-02-22T20:02:34;19.92;;;8.40;;
58760;SDS011;44529;47.464;19.014;2023-02-22T20:05:40;17.45;;;8.35;;
58760;SDS011;44529;47.464;19.014;2023-02-22T20:08:43;22.20;;;8.30;;
58760;SDS011;44529;47.464;19.014;2023-02-22T20:11:45;18.60;;;8.63;;
58760;SDS011;44529;47.464;19.014;2023-02-22T20:14:48;13.95;;;8.25;;